Time;durP1;ratioP1;P1;durP2;ratioP2;P2;SDS_P1;SDS_P2;PMS_P1;PMS_P2;Temp;Humidity;BMP_temperature;BMP_pressure;BME280_temperature;BME280_humidity;BME280_pressure;Samples;Min_cycle;Max_cycle;Signal;HPM_P1;HPM_P2
2020/12/13 00:01:01;;;;;;;72.93;29.98;;;;;;;10.70;72.23;100589.25;5025371;28;20021;-87
2020/12/13 00:03:27;;;;;;;71.97;30.17;;;;;;;10.71;72.16;100590.13;5025172;28;20061;-86
2020/12/13 00:05:55;;;;;;;64.05;27.63;;;;;;;10.72;72.08;100589.22;5024159;28;20026;-87
2020/12/13 00:08:22;;;;;;;105.53;33.13;;;;;;;10.71;72.05;100592.78;5024666;28;20116;-87
2020/12/13 00:10:49;;;;;;;93.30;32.55;;;;;;;10.72;72.20;100598.03;5025319;28;20481;-88
2020/12/13 00:13:16;;;;;;;68.50;28.10;;;;;;;10.72;72.17;100586.59;5023109;28;20092;-87
2020/12/13 00:15:42;;;;;;;80.88;30.73;;;;;;;10.71;71.92;100590.13;5024790;28;20354;-88
2020/12/13 00:18:09;;;;;;;74.07;28.10;;;;;;;10.70;72.12;100594.53;5025156;28;20058;-87
2020/12/13 00:20:36;;;;;;;60.40;23.55;;;;;;;10.65;72.11;100586.72;5025899;28;20105;-86
2020/12/13 00:23:02;;;;;;;54.83;23.00;;;;;;;10.64;72.09;100584.09;5033291;28;20031;-87
2020/12/13 00:25:28;;;;;;;41.47;19.63;;;;;;;10.53;72.26;100589.69;5026939;28;20030;-87
2020/12/13 00:27:55;;;;;;;42.67;20.42;;;;;;;10.50;72.30;100587.97;5024862;28;20065;-87
2020/12/13 00:30:22;;;;;;;67.25;23.52;;;;;;;10.47;72.16;100590.69;5023226;28;20037;-87
2020/12/13 00:32:48;;;;;;;33.72;18.23;;;;;;;10.30;72.79;100598.97;5024285;28;20021;-86
2020/12/13 00:35:15;;;;;;;54.70;22.60;;;;;;;10.28;72.67;100614.03;5020232;28;20033;-87
2020/12/13 00:37:42;;;;;;;47.17;22.48;;;;;;;10.29;72.83;100614.91;5024803;28;20026;-88
2020/12/13 00:40:14;;;;;;;48.95;21.23;;;;;;;10.43;72.38;100617.25;5023227;28;20040;-88
2020/12/13 00:42:40;;;;;;;59.33;25.52;;;;;;;10.46;72.19;100614.56;5021780;28;20029;-88
2020/12/13 00:45:07;;;;;;;45.00;21.20;;;;;;;10.49;72.24;100627.72;5024895;28;20032;-88
2020/12/13 00:47:34;;;;;;;54.35;22.63;;;;;;;10.33;72.64;100617.44;5023517;28;20553;-87
2020/12/13 00:50:00;;;;;;;39.97;19.63;;;;;;;10.44;72.35;100619.91;5023872;28;20381;-87
2020/12/13 00:52:27;;;;;;;45.63;19.90;;;;;;;10.45;72.05;100623.41;5023382;28;20017;-88
2020/12/13 00:54:53;;;;;;;45.33;21.25;;;;;;;10.45;72.18;100623.41;5022520;28;20355;-87
2020/12/13 00:57:20;;;;;;;50.58;22.67;;;;;;;10.41;72.13;100624.41;5023285;28;20376;-88
2020/12/13 00:59:46;;;;;;;62.47;26.40;;;;;;;10.43;72.13;100620.81;5024851;28;20028;-88
2020/12/13 01:02:13;;;;;;;44.80;21.90;;;;;;;10.43;72.06;100634.03;5022941;28;20014;-87
2020/12/13 01:04:40;;;;;;;63.75;26.42;;;;;;;10.46;71.79;100641.03;5030976;28;20492;-87
2020/12/13 01:07:06;;;;;;;52.17;24.58;;;;;;;10.48;72.22;100641.88;5034375;28;20369;-87
2020/12/13 01:09:33;;;;;;;65.13;26.60;;;;;;;10.50;72.02;100650.66;5033153;28;20021;-87
2020/12/13 01:11:59;;;;;;;66.95;25.35;;;;;;;10.50;72.04;100655.97;5024570;28;20033;-87
2020/12/13 01:14:26;;;;;;;49.03;23.20;;;;;;;10.53;71.97;100661.19;5023817;28;20030;-86
2020/12/13 01:16:54;;;;;;;64.50;27.80;;;;;;;10.57;71.98;100657.56;5021848;28;20128;-86
2020/12/13 01:19:21;;;;;;;60.80;26.58;;;;;;;10.57;71.96;100664.66;5023661;28;20040;-86
2020/12/13 01:21:48;;;;;;;64.60;27.13;;;;;;;10.57;71.92;100665.50;5014072;28;20045;-86
2020/12/13 01:24:17;;;;;;;51.33;22.90;;;;;;;10.57;71.92;100662.00;5013766;28;20157;-86
2020/12/13 01:26:43;;;;;;;60.70;25.92;;;;;;;10.58;71.86;100669.91;5014324;28;20030;-86
2020/12/13 01:29:10;;;;;;;72.05;29.02;;;;;;;10.59;71.83;100666.34;5013946;28;20075;-85
2020/12/13 01:31:39;;;;;;;42.70;20.85;;;;;;;10.61;71.86;100675.13;5014377;28;20424;-85
2020/12/13 01:34:07;;;;;;;43.97;19.90;;;;;;;10.61;71.73;100672.47;5013876;28;20061;-85
2020/12/13 01:36:34;;;;;;;55.38;23.48;;;;;;;10.59;71.69;100671.66;5013927;28;20034;-86
2020/12/13 01:39:01;;;;;;;40.05;18.58;;;;;;;10.58;71.64;100675.22;5013775;28;20026;-86
2020/12/13 01:41:29;;;;;;;47.63;22.25;;;;;;;10.57;71.63;100673.47;5014335;28;20088;-86
2020/12/13 01:44:06;;;;;;;54.25;23.48;;;;;;;10.62;71.51;100684.81;5013772;28;20074;-86
2020/12/13 01:46:34;;;;;;;52.47;23.95;;;;;;;10.55;71.68;100683.22;5019505;28;20060;-86
2020/12/13 01:49:05;;;;;;;45.10;22.10;;;;;;;10.53;71.79;100687.69;5022834;28;20031;-85
2020/12/13 01:54:36;;;;;;;52.70;23.73;;;;;;;10.52;71.53;100680.66;5081200;27;20862;-86
2020/12/13 01:57:04;;;;;;;61.25;29.13;;;;;;;10.50;71.55;100683.34;5069823;28;20086;-87
2020/12/13 01:59:33;;;;;;;54.15;26.95;;;;;;;10.49;71.70;100696.59;5068821;28;20471;-87
2020/12/13 02:02:02;;;;;;;51.70;26.80;;;;;;;10.50;71.59;100699.22;5069825;28;20021;-87
2020/12/13 02:04:34;;;;;;;56.58;27.85;;;;;;;10.54;71.46;100699.16;5069407;28;20044;-87
2020/12/13 02:07:03;;;;;;;44.70;23.77;;;;;;;10.53;71.70;100698.28;5069844;28;20114;-86
2020/12/13 02:09:30;;;;;;;60.05;25.63;;;;;;;10.50;71.70;100707.19;5069852;28;20091;-87
2020/12/13 02:11:56;;;;;;;51.30;23.00;;;;;;;10.53;71.56;100708.88;5069739;28;20024;-88
2020/12/13 02:14:23;;;;;;;48.85;23.50;;;;;;;10.53;71.73;100711.53;5069317;28;20090;-87
2020/12/13 02:16:52;;;;;;;64.68;26.10;;;;;;;10.54;71.70;100704.44;5069653;28;20150;-87
2020/12/13 02:19:19;;;;;;;48.50;22.45;;;;;;;10.54;71.86;100704.44;5069460;28;20031;-87
2020/12/13 02:21:47;;;;;;;46.30;22.55;;;;;;;10.54;71.58;100705.31;5069507;28;20029;-88
2020/12/13 02:24:15;;;;;;;46.70;22.63;;;;;;;10.54;71.78;100707.09;5029876;28;20036;-86
2020/12/13 02:26:43;;;;;;;47.22;21.58;;;;;;;10.55;71.64;100714.13;5052879;28;20084;-87
2020/12/13 02:29:10;;;;;;;58.08;23.60;;;;;;;10.54;71.68;100715.91;5069383;28;20417;-87
2020/12/13 02:31:37;;;;;;;40.75;20.70;;;;;;;10.56;71.74;100715.88;5069378;28;20025;-87
2020/12/13 02:34:05;;;;;;;44.22;20.70;;;;;;;10.54;71.64;100720.34;5050876;28;20025;-88
2020/12/13 02:36:33;;;;;;;50.05;23.27;;;;;;;10.57;71.52;100721.16;5069302;28;20112;-87
2020/12/13 02:39:00;;;;;;;51.30;22.73;;;;;;;10.54;71.51;100720.34;5068893;28;20031;-87
2020/12/13 02:41:27;;;;;;;46.75;21.35;;;;;;;10.53;71.62;100730.06;5069079;28;20063;-87
2020/12/13 02:43:53;;;;;;;48.33;21.17;;;;;;;10.48;71.83;100729.28;5068809;28;20074;-87
2020/12/13 02:46:20;;;;;;;43.92;20.60;;;;;;;10.50;71.64;100735.44;5068987;28;20154;-87
2020/12/13 02:48:46;;;;;;;71.80;24.63;;;;;;;10.47;71.75;100740.81;5069073;28;20021;-87
2020/12/13 02:51:13;;;;;;;58.85;23.38;;;;;;;10.47;71.92;100741.66;5068619;28;20025;-87
2020/12/13 02:53:40;;;;;;;56.58;21.98;;;;;;;10.47;71.95;100738.16;5068607;28;20041;-87
2020/12/13 02:56:06;;;;;;;49.28;22.02;;;;;;;10.49;71.55;100738.97;5068530;28;20025;-87
2020/12/13 02:58:50;;;;;;;49.75;21.60;;;;;;;10.52;71.42;100738.94;5068742;28;20032;-86
2020/12/13 03:01:24;;;;;;;50.25;20.73;;;;;;;10.40;71.14;100741.84;5067737;28;20040;-91
2020/12/13 03:03:55;;;;;;;64.60;22.60;;;;;;;10.31;70.93;100745.50;5066636;28;20035;-89
2020/12/13 03:06:22;;;;;;;45.45;19.50;;;;;;;10.16;70.75;100752.00;5055180;28;20028;-87
2020/12/13 03:08:48;;;;;;;58.42;19.33;;;;;;;10.11;70.58;100743.25;5055566;28;20033;-88
2020/12/13 03:11:20;;;;;;;57.05;20.30;;;;;;;9.99;71.15;100749.66;5055273;28;20036;-87
2020/12/13 03:13:47;;;;;;;66.72;22.20;;;;;;;9.89;71.58;100759.53;5050206;28;20029;-87
2020/12/13 03:16:14;;;;;;;56.95;19.63;;;;;;;9.82;71.65;100757.91;5055337;28;20033;-87
2020/12/13 03:18:40;;;;;;;53.67;19.15;;;;;;;9.82;71.02;100757.91;5056039;28;20021;-87
2020/12/13 03:21:07;;;;;;;69.80;21.85;;;;;;;9.74;71.04;100767.78;5055484;28;20025;-87
2020/12/13 03:23:34;;;;;;;50.85;20.33;;;;;;;9.75;70.82;100772.16;5056359;28;20480;-87
2020/12/13 03:26:00;;;;;;;56.08;19.42;;;;;;;9.90;70.60;100779.81;5055521;28;20044;-87
2020/12/13 03:28:27;;;;;;;46.45;18.60;;;;;;;9.66;71.05;100779.34;5055917;28;20098;-87
2020/12/13 03:30:54;;;;;;;58.25;19.83;;;;;;;9.57;71.90;100784.81;5054844;28;20029;-88
2020/12/13 03:33:21;;;;;;;59.33;20.65;;;;;;;9.57;72.13;100787.47;5055700;28;20457;-88
2020/12/13 03:35:47;;;;;;;60.65;21.80;;;;;;;9.52;72.32;100784.88;5055412;28;20078;-88
2020/12/13 03:38:14;;;;;;;54.03;19.30;;;;;;;9.71;71.82;100782.78;5055929;28;20036;-87
2020/12/13 03:40:41;;;;;;;57.90;21.35;;;;;;;9.81;71.16;100786.16;5055552;28;20113;-88
2020/12/13 03:43:08;;;;;;;59.15;22.23;;;;;;;9.88;71.22;100786.91;5054117;28;20033;-87
2020/12/13 03:45:34;;;;;;;50.50;19.73;;;;;;;9.90;71.20;100782.47;5026608;28;20036;-87
2020/12/13 03:48:01;;;;;;;54.72;20.65;;;;;;;9.94;70.78;100792.09;5015533;28;20022;-87
2020/12/13 03:50:38;;;;;;;57.83;20.40;;;;;;;9.95;70.76;100796.47;5025560;28;20029;-88
2020/12/13 03:53:06;;;;;;;54.13;20.45;;;;;;;9.91;71.12;100800.09;5035195;28;20033;-87
2020/12/13 03:55:33;;;;;;;39.40;17.52;;;;;;;9.92;71.11;100804.50;5035198;28;20033;-88
2020/12/13 03:57:59;;;;;;;46.53;18.88;;;;;;;9.93;71.27;100811.53;5035216;28;20029;-88
2020/12/13 04:00:29;;;;;;;52.13;19.63;;;;;;;9.95;71.30;100807.06;5034888;28;20171;-87
2020/12/13 04:02:56;;;;;;;57.63;19.10;;;;;;;9.96;71.16;100822.06;5035008;28;20040;-88
2020/12/13 04:05:24;;;;;;;42.08;17.10;;;;;;;9.95;71.47;100822.94;5034932;28;20028;-87
2020/12/13 04:07:50;;;;;;;41.42;17.25;;;;;;;9.97;71.43;100821.16;5035461;28;20056;-87
2020/12/13 04:10:18;;;;;;;46.72;19.58;;;;;;;10.00;71.39;100825.53;5022766;28;20029;-87
2020/12/13 04:12:45;;;;;;;47.38;19.58;;;;;;;10.01;71.54;100827.28;5017000;28;20032;-87
2020/12/13 04:15:12;;;;;;;53.40;19.55;;;;;;;10.01;71.72;100832.56;5014869;28;20113;-87
2020/12/13 04:17:39;;;;;;;39.58;16.42;;;;;;;10.00;71.52;100836.97;5013948;28;20026;-87
2020/12/13 04:20:07;;;;;;;41.05;17.65;;;;;;;9.99;71.99;100829.97;5035304;28;20473;-87
2020/12/13 04:22:34;;;;;;;52.97;20.15;;;;;;;10.07;71.71;100836.84;5034338;28;20044;-87
2020/12/13 04:25:01;;;;;;;55.13;19.52;;;;;;;10.08;71.72;100830.66;5034579;28;20087;-87
2020/12/13 04:27:27;;;;;;;40.38;18.02;;;;;;;10.13;71.53;100831.44;5034305;28;20030;-87
2020/12/13 04:29:54;;;;;;;44.35;18.75;;;;;;;10.14;71.68;100827.91;5034897;28;20040;-86
2020/12/13 04:32:21;;;;;;;47.58;19.13;;;;;;;10.16;71.74;100836.72;5022603;28;20073;-88
2020/12/13 04:34:48;;;;;;;42.17;17.98;;;;;;;10.16;71.50;100832.28;5014588;28;20026;-87
2020/12/13 04:37:15;;;;;;;58.78;19.42;;;;;;;10.19;71.47;100841.94;5014504;28;20030;-86
2020/12/13 04:39:42;;;;;;;47.95;20.45;;;;;;;10.02;72.04;100835.19;5039916;28;20028;-87
2020/12/13 04:42:09;;;;;;;55.03;20.40;;;;;;;9.91;72.84;100852.16;5053314;28;20101;-87
2020/12/13 04:44:37;;;;;;;43.05;18.40;;;;;;;9.84;72.82;100846.97;5053533;28;20376;-86
2020/12/13 04:47:05;;;;;;;55.92;20.95;;;;;;;9.84;72.82;100852.25;5053186;28;20388;-86
2020/12/13 04:49:34;;;;;;;57.95;20.98;;;;;;;9.84;72.96;100851.38;5053607;28;20032;-86
2020/12/13 04:52:02;;;;;;;52.88;19.58;;;;;;;9.87;72.70;100844.25;5054019;28;20542;-86
2020/12/13 04:54:30;;;;;;;47.75;18.50;;;;;;;9.88;72.71;100850.41;5033645;28;20034;-87
2020/12/13 04:56:58;;;;;;;55.03;19.63;;;;;;;9.91;73.02;100852.16;5033564;28;20120;-87
2020/12/13 04:59:26;;;;;;;54.65;19.08;;;;;;;9.90;73.14;100856.56;5033909;28;20040;-87
2020/12/13 05:01:54;;;;;;;64.53;20.65;;;;;;;9.89;73.34;100860.09;5047443;28;20048;-87
2020/12/13 05:04:20;;;;;;;59.50;20.27;;;;;;;9.88;73.12;100858.34;5053683;28;20040;-87
2020/12/13 05:06:47;;;;;;;57.17;19.50;;;;;;;9.95;73.08;100857.34;5043436;28;20033;-87
2020/12/13 05:09:15;;;;;;;60.45;21.95;;;;;;;9.97;73.30;100863.50;5023473;28;20029;-87
2020/12/13 05:11:43;;;;;;;66.28;23.48;;;;;;;9.98;73.06;100859.97;5028981;28;20054;-87
2020/12/13 05:14:11;;;;;;;71.10;22.63;;;;;;;9.99;73.13;100872.31;5016577;28;20041;-87
2020/12/13 05:16:37;;;;;;;56.05;20.17;;;;;;;10.02;73.18;100866.09;5035309;28;20030;-87
2020/12/13 05:19:08;;;;;;;62.42;22.88;;;;;;;10.04;73.75;100864.25;5033708;28;20389;-87
2020/12/13 05:21:36;;;;;;;71.65;23.25;;;;;;;10.09;73.36;100856.25;5033605;28;20029;-87
2020/12/13 05:24:05;;;;;;;62.13;22.58;;;;;;;10.13;73.42;100863.22;5033467;28;20037;-88
2020/12/13 05:26:32;;;;;;;83.18;25.17;;;;;;;10.10;73.42;100864.16;5033705;28;20025;-87
2020/12/13 05:29:00;;;;;;;66.28;22.27;;;;;;;10.19;73.40;100863.13;5033059;28;20029;-87
2020/12/13 05:31:29;;;;;;;68.20;21.65;;;;;;;10.21;73.28;100863.97;5033854;28;20021;-87
2020/12/13 05:34:04;;;;;;;69.78;23.85;;;;;;;10.19;73.30;100857.81;5031123;28;20030;-87
2020/12/13 05:36:37;;;;;;;69.22;21.85;;;;;;;10.15;73.78;100861.44;5027287;28;20120;-87
2020/12/13 05:39:04;;;;;;;61.47;23.13;;;;;;;10.04;74.72;100872.19;5033118;28;20488;-89
2020/12/13 05:41:37;;;;;;;69.57;22.83;;;;;;;10.27;73.62;100866.50;5033779;28;20026;-89
2020/12/13 05:44:36;;;;;;;63.90;20.08;;;;;;;10.27;73.61;100871.81;5032966;28;20029;-88
2020/12/13 05:47:15;;;;;;;51.95;19.40;;;;;;;10.34;73.52;100875.19;5013430;28;20559;-88
2020/12/13 05:50:01;;;;;;;75.15;22.08;;;;;;;10.39;73.17;100864.56;5014106;28;20057;-88
2020/12/13 05:52:28;;;;;;;64.60;22.58;;;;;;;10.36;73.48;100870.78;4998648;28;20042;-87
2020/12/13 05:54:55;;;;;;;60.92;22.40;;;;;;;10.33;73.56;100874.34;5015149;28;20030;-88
2020/12/13 05:57:22;;;;;;;60.50;22.85;;;;;;;10.36;73.44;100871.66;5018766;28;20428;-87
2020/12/13 05:59:49;;;;;;;60.47;22.20;;;;;;;10.39;73.59;100875.16;5013721;28;20034;-89
2020/12/13 06:02:16;;;;;;;61.22;21.85;;;;;;;10.46;73.04;100879.44;5013247;28;20053;-88
2020/12/13 06:04:47;;;;;;;44.85;20.23;;;;;;;10.50;73.02;100881.13;5030228;28;20057;-87
2020/12/13 06:07:14;;;;;;;58.45;23.00;;;;;;;10.51;72.98;100881.09;5033371;28;20060;-87
2020/12/13 06:09:44;;;;;;;50.65;20.27;;;;;;;10.55;72.81;100892.50;5032844;28;20033;-88
2020/12/13 06:12:12;;;;;;;64.55;23.98;;;;;;;10.58;72.75;100889.81;5033375;28;20026;-88
2020/12/13 06:14:41;;;;;;;50.20;21.95;;;;;;;10.62;72.50;100887.97;5032548;28;20359;-86
2020/12/13 06:17:08;;;;;;;56.05;20.38;;;;;;;10.50;73.05;100894.38;5019076;28;20030;-88
2020/12/13 06:19:38;;;;;;;55.50;22.25;;;;;;;10.49;73.08;100897.91;5013013;28;20501;-89
2020/12/13 06:22:04;;;;;;;55.20;22.77;;;;;;;10.41;73.26;100894.56;5013227;28;20026;-88
2020/12/13 06:24:31;;;;;;;61.42;24.13;;;;;;;10.41;73.35;100895.41;5015629;28;20037;-89
2020/12/13 06:26:58;;;;;;;46.20;20.40;;;;;;;10.41;73.16;100899.84;5033091;28;20377;-88
2020/12/13 06:29:26;;;;;;;52.70;23.00;;;;;;;10.42;73.16;100901.56;5032772;28;20116;-88
2020/12/13 06:31:53;;;;;;;56.72;22.13;;;;;;;10.35;73.30;100898.13;5033022;28;20025;-88
2020/12/13 06:34:19;;;;;;;53.30;21.80;;;;;;;10.42;73.21;100904.22;5032637;28;20026;-89
2020/12/13 06:36:46;;;;;;;47.88;19.95;;;;;;;10.44;73.02;100908.63;5033423;28;20029;-89
2020/12/13 06:39:16;;;;;;;60.25;24.55;;;;;;;10.47;73.05;100908.53;5033172;28;20060;-88
2020/12/13 06:41:46;;;;;;;56.05;23.17;;;;;;;10.47;73.00;100910.34;5037043;28;20372;-88
2020/12/13 06:44:13;;;;;;;49.95;20.60;;;;;;;10.52;72.62;100914.63;5036697;28;20040;-88
2020/12/13 06:46:44;;;;;;;50.65;21.73;;;;;;;10.61;72.41;100902.97;5027961;28;20037;-88
2020/12/13 06:49:12;;;;;;;51.05;21.35;;;;;;;10.58;72.44;100911.00;5025127;28;20029;-88
2020/12/13 06:51:40;;;;;;;55.83;21.63;;;;;;;10.56;72.30;100909.28;5036532;28;20412;-88
2020/12/13 06:54:09;;;;;;;42.50;19.92;;;;;;;10.58;72.37;100918.06;5036110;28;20084;-88
2020/12/13 06:56:36;;;;;;;45.55;21.88;;;;;;;10.50;72.46;100915.56;5029603;28;20429;-88
2020/12/13 06:59:05;;;;;;;43.80;20.92;;;;;;;10.50;72.46;100911.16;5036316;28;20021;-88
2020/12/13 07:01:37;;;;;;;53.30;20.73;;;;;;;10.49;72.57;100922.66;5036316;28;20029;-88
2020/12/13 07:04:27;;;;;;;46.47;20.55;;;;;;;10.51;72.07;100914.66;5034949;28;20025;-88
2020/12/13 07:07:00;;;;;;;45.30;20.02;;;;;;;10.40;72.61;100919.28;5016531;28;20120;-88
2020/12/13 07:09:29;;;;;;;50.67;23.15;;;;;;;10.44;72.35;100923.63;5016310;28;20121;-88
2020/12/13 07:11:56;;;;;;;46.58;21.33;;;;;;;10.44;72.36;100923.63;5016310;28;20036;-87
2020/12/13 07:14:26;;;;;;;57.78;22.48;;;;;;;10.40;72.30;100921.94;5015693;28;20374;-88
2020/12/13 07:17:04;;;;;;;47.05;20.80;;;;;;;10.41;72.41;100929.84;5016463;28;20030;-88
2020/12/13 07:19:33;;;;;;;55.42;20.30;;;;;;;10.36;72.38;100929.91;5018362;28;20034;-87
2020/12/13 07:22:09;;;;;;;40.65;20.00;;;;;;;10.43;72.20;100943.06;5016560;28;20037;-87
2020/12/13 07:24:35;;;;;;;41.10;19.52;;;;;;;10.32;72.33;100941.44;5033029;28;20037;-87
2020/12/13 07:27:03;;;;;;;40.22;19.02;;;;;;;10.33;71.92;100942.31;5036169;28;20480;-88
2020/12/13 07:29:32;;;;;;;41.20;18.50;;;;;;;10.21;72.41;100951.34;5035461;28;20033;-88
2020/12/13 07:32:00;;;;;;;37.55;18.75;;;;;;;10.14;72.52;100952.34;5028526;28;20026;-88
2020/12/13 07:34:26;;;;;;;50.17;18.40;;;;;;;10.10;72.22;100948.88;5015517;28;20030;-88
2020/12/13 07:36:53;;;;;;;41.55;18.73;;;;;;;10.11;72.46;100947.97;5015965;28;20041;-88
2020/12/13 07:39:20;;;;;;;40.65;17.98;;;;;;;10.11;72.28;100952.41;5019190;28;20034;-88
2020/12/13 07:41:47;;;;;;;44.17;18.05;;;;;;;10.11;72.44;100965.66;5035791;28;20354;-88
2020/12/13 07:44:16;;;;;;;36.10;17.60;;;;;;;10.09;72.52;100967.44;5031931;28;20026;-88
2020/12/13 07:46:43;;;;;;;50.92;19.23;;;;;;;10.00;72.72;100977.25;5015347;28;20037;-88
2020/12/13 07:49:15;;;;;;;46.58;19.42;;;;;;;9.98;72.46;100981.72;5015865;28;20116;-87
2020/12/13 07:51:45;;;;;;;40.53;17.30;;;;;;;10.01;72.48;100986.97;5015425;28;20068;-87
2020/12/13 07:56:56;;;;;;;36.00;17.00;;;;;;;9.96;72.40;100986.16;5088902;27;20414;-87
2020/12/13 07:59:25;;;;;;;36.40;16.15;;;;;;;9.87;72.64;100987.16;5069896;28;20073;-89
2020/12/13 08:01:53;;;;;;;47.00;18.35;;;;;;;9.78;72.92;101000.56;5067865;28;20036;-89
2020/12/13 08:04:35;;;;;;;41.72;16.05;;;;;;;9.87;72.62;101004.84;5064700;28;20036;-90
2020/12/13 08:07:04;;;;;;;41.38;17.85;;;;;;;9.74;72.96;101004.13;5057828;28;20029;-89
2020/12/13 08:09:31;;;;;;;36.75;15.45;;;;;;;9.53;73.41;101010.56;5070489;28;20082;-86
2020/12/13 08:11:57;;;;;;;40.25;16.30;;;;;;;9.63;73.13;101014.88;5053780;28;20035;-87
2020/12/13 08:14:25;;;;;;;33.38;15.05;;;;;;;9.60;72.76;101012.25;5046220;28;20056;-92
2020/12/13 08:16:54;;;;;;;40.83;15.55;;;;;;;9.61;72.59;101023.69;5040325;28;20037;-90
2020/12/13 08:19:26;;;;;;;35.65;15.65;;;;;;;9.57;72.41;101022.88;5046828;28;20104;-88
2020/12/13 08:24:38;;;;;;;33.95;15.20;;;;;;;9.48;72.59;101037.09;5076571;28;20489;-87
2020/12/13 08:27:06;;;;;;;34.90;15.27;;;;;;;9.42;72.68;101033.63;5069728;28;20032;-86
2020/12/13 08:29:34;;;;;;;36.90;15.95;;;;;;;9.48;72.66;101033.56;5070297;28;20036;-90
2020/12/13 08:32:10;;;;;;;38.22;16.15;;;;;;;9.29;72.78;101039.06;5067292;28;20452;-87
2020/12/13 08:34:36;;;;;;;31.55;14.25;;;;;;;9.36;72.57;101040.75;5068573;28;20051;-88
2020/12/13 08:37:03;;;;;;;30.63;13.63;;;;;;;9.45;72.35;101042.41;5070405;28;20476;-88
2020/12/13 08:39:32;;;;;;;47.35;15.02;;;;;;;9.35;73.01;101049.56;5070273;28;20029;-87
2020/12/13 08:42:00;;;;;;;32.63;12.57;;;;;;;9.30;73.01;101051.41;5069783;28;20037;-88
2020/12/13 08:44:30;;;;;;;47.50;18.90;;;;;;;9.30;72.95;101050.53;5070283;28;20482;-87
2020/12/13 08:46:59;;;;;;;41.95;15.48;;;;;;;9.35;72.76;101049.56;5069668;28;20360;-90
2020/12/13 08:49:28;;;;;;;32.97;15.60;;;;;;;9.40;72.98;101049.53;5069357;28;20532;-88
2020/12/13 08:51:55;;;;;;;45.83;15.18;;;;;;;9.39;73.06;101051.31;5070058;28;20032;-87
2020/12/13 08:54:21;;;;;;;33.47;14.80;;;;;;;9.42;72.36;101049.50;5069644;28;20103;-87
2020/12/13 08:56:53;;;;;;;33.33;13.95;;;;;;;9.46;72.82;101053.84;5069709;28;20051;-88
2020/12/13 08:59:21;;;;;;;32.53;13.32;;;;;;;9.46;73.10;101056.50;5069650;28;20040;-87
2020/12/13 09:01:58;;;;;;;29.55;12.73;;;;;;;9.55;72.51;101061.69;5069531;28;20040;-86
2020/12/13 09:04:28;;;;;;;31.80;14.05;;;;;;;9.53;72.92;101058.19;5069269;28;20579;-86
2020/12/13 09:06:58;;;;;;;148.68;82.03;;;;;;;9.51;73.10;101057.34;5069078;28;20025;-88
2020/12/13 09:09:33;;;;;;;35.53;18.77;;;;;;;9.64;72.50;101061.56;5065731;28;20060;-86
2020/12/13 09:12:02;;;;;;;36.47;15.05;;;;;;;9.58;72.36;101068.72;5064550;28;20029;-86
2020/12/13 09:17:12;;;;;;;30.75;13.77;;;;;;;9.50;72.57;101069.69;5129692;27;20366;-90
2020/12/13 09:19:52;;;;;;;37.35;15.70;;;;;;;9.59;71.64;101071.34;5131449;27;20039;-89
2020/12/13 09:22:21;;;;;;;27.75;12.60;;;;;;;9.54;71.60;101075.81;5130641;27;20034;-87
2020/12/13 09:24:47;;;;;;;31.33;12.32;;;;;;;9.45;71.90;101071.50;5116805;28;20016;-88
2020/12/13 09:27:19;;;;;;;25.33;12.65;;;;;;;9.41;72.06;101079.47;5109696;28;20027;-86
2020/12/13 09:29:48;;;;;;;27.23;13.15;;;;;;;9.35;71.82;101083.94;5108403;28;20153;-87
2020/12/13 09:32:16;;;;;;;23.40;13.27;;;;;;;9.34;72.11;101082.19;5108993;28;20073;-90
2020/12/13 09:34:44;;;;;;;26.20;13.27;;;;;;;9.43;71.75;101073.28;5108905;28;20039;-86
2020/12/13 09:37:12;;;;;;;28.58;14.27;;;;;;;9.42;71.55;101065.38;5110109;28;20067;-86
2020/12/13 09:39:38;;;;;;;27.80;12.27;;;;;;;9.30;72.46;101077.84;5109713;28;20028;-86
2020/12/13 09:42:13;;;;;;;19.67;11.85;;;;;;;9.41;72.03;101075.09;5108680;28;20053;-84
2020/12/13 09:44:47;;;;;;;26.55;13.18;;;;;;;9.46;71.97;101075.00;5109048;28;20049;-88
2020/12/13 09:47:17;;;;;;;21.17;12.77;;;;;;;9.43;71.68;101083.00;5110994;28;20028;-87
2020/12/13 09:49:44;;;;;;;27.90;12.05;;;;;;;9.55;71.92;101090.78;5111103;28;20343;-86
2020/12/13 09:52:11;;;;;;;20.58;11.98;;;;;;;9.57;71.37;101085.47;5111502;28;20026;-87
2020/12/13 09:54:38;;;;;;;21.00;13.13;;;;;;;9.64;71.55;101088.03;5112060;28;20047;-86
2020/12/13 09:57:08;;;;;;;22.77;11.70;;;;;;;9.44;72.05;101101.47;5111274;28;20035;-88
2020/12/13 09:59:35;;;;;;;24.80;13.10;;;;;;;9.53;72.05;101100.50;5105631;28;20522;-87
2020/12/13 10:02:01;;;;;;;23.88;12.02;;;;;;;9.66;71.46;101085.38;5107105;28;20040;-88
2020/12/13 10:04:28;;;;;;;22.55;12.02;;;;;;;9.74;70.98;101087.94;5108624;28;20024;-91
2020/12/13 10:09:40;;;;;;;23.30;10.65;;;;;;;9.80;71.41;101091.34;5108383;28;20514;-89
2020/12/13 10:12:10;;;;;;;25.77;12.82;;;;;;;9.85;71.08;101088.66;5107452;28;20031;-89
2020/12/13 10:14:36;;;;;;;27.55;12.75;;;;;;;9.82;71.09;101083.38;5109682;28;20502;-87
2020/12/13 10:17:03;;;;;;;19.10;9.90;;;;;;;9.80;70.05;101088.72;5108597;28;20115;-89
2020/12/13 10:19:30;;;;;;;18.20;9.52;;;;;;;9.90;70.93;101089.47;5108543;28;20114;-87
2020/12/13 10:21:56;;;;;;;13.90;8.85;;;;;;;9.92;70.97;101090.34;5108858;28;20024;-87
2020/12/13 10:24:22;;;;;;;23.15;9.55;;;;;;;9.90;70.72;101092.13;5108957;28;20447;-89
2020/12/13 10:26:48;;;;;;;21.38;8.30;;;;;;;9.91;70.35;101080.63;5104922;28;20051;-93
2020/12/13 10:29:15;;;;;;;17.67;8.50;;;;;;;9.92;70.61;101084.16;5091507;28;20024;-87
2020/12/13 10:31:41;;;;;;;17.77;9.15;;;;;;;10.06;70.17;101079.56;5094854;28;20028;-90
2020/12/13 10:34:10;;;;;;;17.38;8.50;;;;;;;10.01;69.83;101071.66;5093172;28;20149;-88
2020/12/13 10:36:38;;;;;;;22.30;9.73;;;;;;;9.96;69.85;101062.06;5093976;28;20497;-89
2020/12/13 10:39:06;;;;;;;15.82;8.73;;;;;;;10.12;69.42;101062.69;5094045;28;20028;-87
2020/12/13 10:41:33;;;;;;;18.42;9.23;;;;;;;10.21;69.67;101073.16;5094226;28;20047;-87
2020/12/13 10:44:00;;;;;;;22.00;11.48;;;;;;;10.13;69.12;101067.09;5096493;28;20127;-86
2020/12/13 10:46:26;;;;;;;19.60;10.48;;;;;;;10.23;69.47;101071.38;5092478;28;20024;-86
2020/12/13 10:48:53;;;;;;;23.38;11.00;;;;;;;10.33;68.99;101072.97;5094781;28;20399;-86
2020/12/13 10:51:20;;;;;;;17.30;10.18;;;;;;;10.34;69.03;101069.44;5094937;28;20034;-88
2020/12/13 10:53:48;;;;;;;20.75;9.57;;;;;;;10.27;68.89;101075.72;5095257;28;20031;-88
2020/12/13 10:56:15;;;;;;;20.73;9.90;;;;;;;10.04;68.60;101069.00;5094954;28;20360;-86
2020/12/13 10:58:43;;;;;;;18.58;8.63;;;;;;;10.12;68.42;101084.75;5094643;28;20081;-89
2020/12/13 11:01:22;;;;;;;18.55;8.30;;;;;;;10.22;67.93;101084.63;5096059;28;20107;-96
2020/12/13 11:03:48;;;;;;;17.60;8.23;;;;;;;10.08;68.31;101071.59;5092912;28;20051;-87
2020/12/13 11:06:15;;;;;;;18.92;8.50;;;;;;;10.03;67.61;101072.53;5093502;28;20093;-88
2020/12/13 11:08:41;;;;;;;25.55;12.35;;;;;;;10.03;67.80;101080.47;5094453;28;20102;-85
2020/12/13 11:11:08;;;;;;;33.95;14.45;;;;;;;9.84;67.92;101073.66;5097807;28;20020;-90
2020/12/13 11:13:34;;;;;;;17.27;8.88;;;;;;;9.90;68.43;101068.28;5094806;28;20027;-88
2020/12/13 11:16:01;;;;;;;21.90;8.63;;;;;;;9.92;68.42;101074.47;5090515;28;20031;-89
2020/12/13 11:18:30;;;;;;;18.92;10.05;;;;;;;9.86;68.53;101083.34;5095275;28;20080;-85
2020/12/13 11:20:57;;;;;;;16.10;8.48;;;;;;;9.98;68.01;101068.19;5092238;28;20024;-84
2020/12/13 11:23:27;;;;;;;20.92;9.00;;;;;;;10.07;67.85;101069.81;5098619;28;20027;-86
2020/12/13 11:25:54;;;;;;;17.45;7.75;;;;;;;9.94;68.05;101071.78;5097591;28;20106;-91
2020/12/13 11:28:20;;;;;;;20.35;8.02;;;;;;;10.13;67.91;101062.69;5102251;28;20069;-89
2020/12/13 11:30:47;;;;;;;22.63;8.70;;;;;;;10.11;67.99;101066.25;5084805;28;20059;-93